sensor_id;sensor_type;location;lat;lon;timestamp;P1;durP1;ratioP1;P2;durP2;ratioP2
56116;SDS011;41989;45.356;20.392;2023-04-30T00:01:29;31.33;;;17.48;;
56116;SDS011;41989;45.356;20.392;2023-04-30T00:03:55;22.98;;;15.88;;
56116;SDS011;41989;45.356;20.392;2023-04-30T00:06:23;22.50;;;17.05;;
56116;SDS011;41989;45.356;20.392;2023-04-30T00:08:50;24.77;;;17.10;;
56116;SDS011;41989;45.356;20.392;2023-04-30T00:11:16;30.83;;;18.25;;
56116;SDS011;41989;45.356;20.392;2023-04-30T00:13:42;26.00;;;18.38;;
56116;SDS011;41989;45.356;20.392;2023-04-30T00:16:08;26.60;;;17.08;;
56116;SDS011;41989;45.356;20.392;2023-04-30T00:18:35;24.02;;;17.83;;
56116;SDS011;41989;45.356;20.392;2023-04-30T00:21:01;25.48;;;17.67;;
56116;SDS011;41989;45.356;20.392;2023-04-30T00:23:27;27.13;;;18.45;;
56116;SDS011;41989;45.356;20.392;2023-04-30T00:25:53;26.58;;;17.23;;
56116;SDS011;41989;45.356;20.392;2023-04-30T00:28:19;25.20;;;17.13;;
56116;SDS011;41989;45.356;20.392;2023-04-30T00:30:45;25.00;;;17.48;;
56116;SDS011;41989;45.356;20.392;2023-04-30T00:33:11;24.30;;;16.33;;
56116;SDS011;41989;45.356;20.392;2023-04-30T00:35:37;23.70;;;17.02;;
56116;SDS011;41989;45.356;20.392;2023-04-30T00:38:03;21.52;;;17.15;;
56116;SDS011;41989;45.356;20.392;2023-04-30T00:40:30;20.58;;;16.23;;
56116;SDS011;41989;45.356;20.392;2023-04-30T00:42:56;24.55;;;16.33;;
56116;SDS011;41989;45.356;20.392;2023-04-30T00:45:22;20.70;;;15.30;;
56116;SDS011;41989;45.356;20.392;2023-04-30T00:47:48;28.25;;;16.52;;
56116;SDS011;41989;45.356;20.392;2023-04-30T00:50:15;23.55;;;15.30;;
56116;SDS011;41989;45.356;20.392;2023-04-30T00:52:41;25.27;;;16.75;;
56116;SDS011;41989;45.356;20.392;2023-04-30T00:55:09;21.98;;;15.65;;
56116;SDS011;41989;45.356;20.392;2023-04-30T00:57:35;26.23;;;16.98;;
56116;SDS011;41989;45.356;20.392;2023-04-30T01:00:02;28.58;;;18.00;;
56116;SDS011;41989;45.356;20.392;2023-04-30T01:02:29;24.98;;;16.52;;
56116;SDS011;41989;45.356;20.392;2023-04-30T01:04:55;17.88;;;13.77;;
56116;SDS011;41989;45.356;20.392;2023-04-30T01:07:22;19.23;;;13.20;;
56116;SDS011;41989;45.356;20.392;2023-04-30T01:09:49;21.27;;;13.00;;
56116;SDS011;41989;45.356;20.392;2023-04-30T01:12:18;20.98;;;12.68;;
56116;SDS011;41989;45.356;20.392;2023-04-30T01:17:33;17.27;;;12.45;;
56116;SDS011;41989;45.356;20.392;2023-04-30T01:20:00;15.85;;;12.48;;
56116;SDS011;41989;45.356;20.392;2023-04-30T01:25:00;17.95;;;12.68;;
56116;SDS011;41989;45.356;20.392;2023-04-30T01:30:12;16.30;;;12.35;;
56116;SDS011;41989;45.356;20.392;2023-04-30T01:32:39;16.27;;;12.40;;
56116;SDS011;41989;45.356;20.392;2023-04-30T01:35:05;18.85;;;13.30;;
56116;SDS011;41989;45.356;20.392;2023-04-30T01:45:37;20.27;;;13.98;;
56116;SDS011;41989;45.356;20.392;2023-04-30T01:51:13;16.30;;;13.23;;
56116;SDS011;41989;45.356;20.392;2023-04-30T01:53:41;17.13;;;13.23;;
56116;SDS011;41989;45.356;20.392;2023-04-30T01:56:09;19.17;;;13.38;;
56116;SDS011;41989;45.356;20.392;2023-04-30T01:58:36;15.68;;;12.98;;
56116;SDS011;41989;45.356;20.392;2023-04-30T02:01:02;13.57;;;11.70;;
56116;SDS011;41989;45.356;20.392;2023-04-30T02:03:28;20.23;;;13.23;;
56116;SDS011;41989;45.356;20.392;2023-04-30T02:05:54;15.70;;;12.40;;
56116;SDS011;41989;45.356;20.392;2023-04-30T02:08:21;14.25;;;11.73;;
56116;SDS011;41989;45.356;20.392;2023-04-30T02:10:47;22.90;;;13.13;;
56116;SDS011;41989;45.356;20.392;2023-04-30T02:13:13;16.98;;;13.20;;
56116;SDS011;41989;45.356;20.392;2023-04-30T02:15:39;22.05;;;13.32;;
56116;SDS011;41989;45.356;20.392;2023-04-30T02:18:05;18.85;;;13.70;;
56116;SDS011;41989;45.356;20.392;2023-04-30T02:20:31;16.23;;;12.50;;
56116;SDS011;41989;45.356;20.392;2023-04-30T02:22:57;17.33;;;13.95;;
56116;SDS011;41989;45.356;20.392;2023-04-30T02:25:26;21.05;;;14.35;;
56116;SDS011;41989;45.356;20.392;2023-04-30T02:27:52;19.33;;;14.43;;
56116;SDS011;41989;45.356;20.392;2023-04-30T02:30:18;19.85;;;14.27;;
56116;SDS011;41989;45.356;20.392;2023-04-30T02:32:44;19.95;;;13.90;;
56116;SDS011;41989;45.356;20.392;2023-04-30T02:35:11;17.92;;;13.48;;
56116;SDS011;41989;45.356;20.392;2023-04-30T02:37:38;19.50;;;14.30;;
56116;SDS011;41989;45.356;20.392;2023-04-30T02:40:04;17.58;;;13.38;;
56116;SDS011;41989;45.356;20.392;2023-04-30T02:42:30;19.55;;;14.25;;
56116;SDS011;41989;45.356;20.392;2023-04-30T02:44:56;18.55;;;13.25;;
56116;SDS011;41989;45.356;20.392;2023-04-30T02:47:23;17.70;;;12.77;;
56116;SDS011;41989;45.356;20.392;2023-04-30T02:49:49;17.35;;;13.52;;
56116;SDS011;41989;45.356;20.392;2023-04-30T02:52:15;18.13;;;13.73;;
56116;SDS011;41989;45.356;20.392;2023-04-30T02:54:42;17.67;;;13.23;;
56116;SDS011;41989;45.356;20.392;2023-04-30T02:57:08;18.15;;;13.32;;
56116;SDS011;41989;45.356;20.392;2023-04-30T02:59:34;20.83;;;14.45;;
56116;SDS011;41989;45.356;20.392;2023-04-30T03:02:03;21.67;;;15.77;;
56116;SDS011;41989;45.356;20.392;2023-04-30T03:04:29;18.48;;;13.95;;
56116;SDS011;41989;45.356;20.392;2023-04-30T03:06:55;18.25;;;14.00;;
56116;SDS011;41989;45.356;20.392;2023-04-30T03:09:21;26.67;;;15.40;;
56116;SDS011;41989;45.356;20.392;2023-04-30T03:11:47;22.13;;;13.77;;
56116;SDS011;41989;45.356;20.392;2023-04-30T03:14:14;19.88;;;13.80;;
56116;SDS011;41989;45.356;20.392;2023-04-30T03:16:40;20.58;;;14.40;;
56116;SDS011;41989;45.356;20.392;2023-04-30T03:19:09;20.75;;;14.10;;
56116;SDS011;41989;45.356;20.392;2023-04-30T03:21:40;20.95;;;14.35;;
56116;SDS011;41989;45.356;20.392;2023-04-30T03:24:06;19.55;;;15.35;;
56116;SDS011;41989;45.356;20.392;2023-04-30T03:26:32;20.20;;;14.32;;
56116;SDS011;41989;45.356;20.392;2023-04-30T03:28:58;20.52;;;15.55;;
56116;SDS011;41989;45.356;20.392;2023-04-30T03:31:25;18.30;;;13.48;;
56116;SDS011;41989;45.356;20.392;2023-04-30T03:33:51;19.85;;;14.43;;
56116;SDS011;41989;45.356;20.392;2023-04-30T03:36:17;18.63;;;15.30;;
56116;SDS011;41989;45.356;20.392;2023-04-30T03:38:43;28.17;;;17.00;;
56116;SDS011;41989;45.356;20.392;2023-04-30T03:41:09;20.98;;;15.77;;
56116;SDS011;41989;45.356;20.392;2023-04-30T03:43:35;25.17;;;15.70;;
56116;SDS011;41989;45.356;20.392;2023-04-30T03:46:05;22.35;;;14.35;;
56116;SDS011;41989;45.356;20.392;2023-04-30T03:48:31;20.00;;;16.52;;
56116;SDS011;41989;45.356;20.392;2023-04-30T03:50:57;20.48;;;17.13;;
56116;SDS011;41989;45.356;20.392;2023-04-30T03:53:23;23.05;;;16.27;;
56116;SDS011;41989;45.356;20.392;2023-04-30T03:55:50;21.88;;;18.02;;
56116;SDS011;41989;45.356;20.392;2023-04-30T03:58:16;31.35;;;18.40;;
56116;SDS011;41989;45.356;20.392;2023-04-30T04:00:43;29.50;;;17.88;;
56116;SDS011;41989;45.356;20.392;2023-04-30T04:03:12;18.35;;;15.85;;
56116;SDS011;41989;45.356;20.392;2023-04-30T04:05:38;28.92;;;18.35;;
56116;SDS011;41989;45.356;20.392;2023-04-30T04:08:05;22.05;;;18.15;;
56116;SDS011;41989;45.356;20.392;2023-04-30T04:10:36;22.52;;;18.13;;
56116;SDS011;41989;45.356;20.392;2023-04-30T04:13:02;23.20;;;17.52;;
56116;SDS011;41989;45.356;20.392;2023-04-30T04:15:28;21.42;;;17.25;;
56116;SDS011;41989;45.356;20.392;2023-04-30T04:17:54;20.90;;;16.50;;
56116;SDS011;41989;45.356;20.392;2023-04-30T04:20:21;19.73;;;16.55;;
56116;SDS011;41989;45.356;20.392;2023-04-30T04:22:49;27.55;;;17.48;;
56116;SDS011;41989;45.356;20.392;2023-04-30T04:25:15;20.95;;;17.48;;
56116;SDS011;41989;45.356;20.392;2023-04-30T04:27:42;28.23;;;18.13;;
56116;SDS011;41989;45.356;20.392;2023-04-30T04:30:09;26.05;;;18.27;;
56116;SDS011;41989;45.356;20.392;2023-04-30T04:32:35;27.20;;;17.27;;
56116;SDS011;41989;45.356;20.392;2023-04-30T04:35:10;20.20;;;17.48;;
56116;SDS011;41989;45.356;20.392;2023-04-30T04:37:39;23.05;;;17.48;;
56116;SDS011;41989;45.356;20.392;2023-04-30T04:40:06;22.10;;;17.23;;
56116;SDS011;41989;45.356;20.392;2023-04-30T04:42:32;21.95;;;17.17;;
56116;SDS011;41989;45.356;20.392;2023-04-30T04:44:59;24.88;;;17.92;;
56116;SDS011;41989;45.356;20.392;2023-04-30T04:47:25;25.65;;;18.17;;
56116;SDS011;41989;45.356;20.392;2023-04-30T04:49:51;30.67;;;21.85;;
56116;SDS011;41989;45.356;20.392;2023-04-30T04:52:18;28.95;;;20.98;;
56116;SDS011;41989;45.356;20.392;2023-04-30T04:54:44;28.20;;;20.70;;
56116;SDS011;41989;45.356;20.392;2023-04-30T04:57:10;22.75;;;19.17;;
56116;SDS011;41989;45.356;20.392;2023-04-30T04:59:36;29.95;;;19.45;;
56116;SDS011;41989;45.356;20.392;2023-04-30T05:02:02;23.17;;;18.35;;
56116;SDS011;41989;45.356;20.392;2023-04-30T05:04:28;22.88;;;18.23;;
56116;SDS011;41989;45.356;20.392;2023-04-30T05:06:54;22.85;;;17.23;;
56116;SDS011;41989;45.356;20.392;2023-04-30T05:09:20;22.35;;;17.05;;
56116;SDS011;41989;45.356;20.392;2023-04-30T05:11:47;20.63;;;16.90;;
56116;SDS011;41989;45.356;20.392;2023-04-30T05:14:13;22.40;;;16.73;;
56116;SDS011;41989;45.356;20.392;2023-04-30T05:16:39;39.33;;;17.25;;
56116;SDS011;41989;45.356;20.392;2023-04-30T05:19:05;21.05;;;16.90;;
56116;SDS011;41989;45.356;20.392;2023-04-30T05:21:33;30.63;;;19.63;;
56116;SDS011;41989;45.356;20.392;2023-04-30T05:24:04;29.90;;;22.42;;
56116;SDS011;41989;45.356;20.392;2023-04-30T05:26:30;26.05;;;21.30;;
56116;SDS011;41989;45.356;20.392;2023-04-30T05:28:56;29.20;;;21.83;;
56116;SDS011;41989;45.356;20.392;2023-04-30T05:31:22;27.75;;;22.88;;
56116;SDS011;41989;45.356;20.392;2023-04-30T05:33:48;32.15;;;24.08;;
56116;SDS011;41989;45.356;20.392;2023-04-30T05:36:14;31.38;;;24.48;;
56116;SDS011;41989;45.356;20.392;2023-04-30T05:38:46;30.50;;;21.52;;
56116;SDS011;41989;45.356;20.392;2023-04-30T05:41:12;27.73;;;22.70;;
56116;SDS011;41989;45.356;20.392;2023-04-30T05:43:38;28.27;;;22.38;;
56116;SDS011;41989;45.356;20.392;2023-04-30T05:46:04;30.65;;;21.52;;
56116;SDS011;41989;45.356;20.392;2023-04-30T05:48:31;26.35;;;21.50;;
56116;SDS011;41989;45.356;20.392;2023-04-30T05:50:57;32.40;;;24.95;;
56116;SDS011;41989;45.356;20.392;2023-04-30T05:53:23;30.45;;;23.83;;
56116;SDS011;41989;45.356;20.392;2023-04-30T05:55:49;36.05;;;25.65;;
56116;SDS011;41989;45.356;20.392;2023-04-30T05:58:15;30.83;;;23.98;;
56116;SDS011;41989;45.356;20.392;2023-04-30T06:00:41;31.67;;;23.73;;
56116;SDS011;41989;45.356;20.392;2023-04-30T06:03:07;29.42;;;22.33;;
56116;SDS011;41989;45.356;20.392;2023-04-30T06:05:33;25.48;;;20.48;;
56116;SDS011;41989;45.356;20.392;2023-04-30T06:07:59;24.92;;;20.48;;
56116;SDS011;41989;45.356;20.392;2023-04-30T06:10:26;25.17;;;21.58;;
56116;SDS011;41989;45.356;20.392;2023-04-30T06:12:52;28.23;;;21.65;;
56116;SDS011;41989;45.356;20.392;2023-04-30T06:15:18;27.25;;;19.42;;
56116;SDS011;41989;45.356;20.392;2023-04-30T06:17:44;23.20;;;17.52;;
56116;SDS011;41989;45.356;20.392;2023-04-30T06:20:10;29.75;;;19.70;;
56116;SDS011;41989;45.356;20.392;2023-04-30T06:22:38;26.92;;;18.75;;
56116;SDS011;41989;45.356;20.392;2023-04-30T06:25:05;23.20;;;16.65;;
56116;SDS011;41989;45.356;20.392;2023-04-30T06:27:31;23.80;;;16.45;;
56116;SDS011;41989;45.356;20.392;2023-04-30T06:29:57;21.73;;;15.60;;
56116;SDS011;41989;45.356;20.392;2023-04-30T06:32:25;22.80;;;16.73;;
56116;SDS011;41989;45.356;20.392;2023-04-30T06:34:51;20.88;;;16.35;;
56116;SDS011;41989;45.356;20.392;2023-04-30T06:37:18;24.60;;;17.33;;
56116;SDS011;41989;45.356;20.392;2023-04-30T06:39:44;28.42;;;18.02;;
56116;SDS011;41989;45.356;20.392;2023-04-30T06:42:13;20.58;;;17.00;;
56116;SDS011;41989;45.356;20.392;2023-04-30T06:44:39;22.95;;;17.15;;
56116;SDS011;41989;45.356;20.392;2023-04-30T06:47:05;22.58;;;17.77;;
56116;SDS011;41989;45.356;20.392;2023-04-30T06:49:31;23.50;;;16.35;;
56116;SDS011;41989;45.356;20.392;2023-04-30T06:52:00;20.70;;;17.00;;
56116;SDS011;41989;45.356;20.392;2023-04-30T06:54:29;21.58;;;16.08;;
56116;SDS011;41989;45.356;20.392;2023-04-30T06:56:55;19.77;;;16.25;;
56116;SDS011;41989;45.356;20.392;2023-04-30T06:59:21;20.17;;;16.20;;
56116;SDS011;41989;45.356;20.392;2023-04-30T07:01:47;21.70;;;16.65;;
56116;SDS011;41989;45.356;20.392;2023-04-30T07:04:13;21.20;;;17.13;;
56116;SDS011;41989;45.356;20.392;2023-04-30T07:06:39;21.63;;;17.23;;
56116;SDS011;41989;45.356;20.392;2023-04-30T07:09:06;19.83;;;15.82;;
56116;SDS011;41989;45.356;20.392;2023-04-30T07:11:32;28.83;;;15.13;;
56116;SDS011;41989;45.356;20.392;2023-04-30T07:13:58;25.08;;;16.58;;
56116;SDS011;41989;45.356;20.392;2023-04-30T07:16:24;17.77;;;15.85;;
56116;SDS011;41989;45.356;20.392;2023-04-30T07:18:51;19.85;;;15.50;;
56116;SDS011;41989;45.356;20.392;2023-04-30T07:21:18;20.75;;;15.38;;
56116;SDS011;41989;45.356;20.392;2023-04-30T07:23:44;18.77;;;16.30;;
56116;SDS011;41989;45.356;20.392;2023-04-30T07:26:10;19.30;;;15.18;;
56116;SDS011;41989;45.356;20.392;2023-04-30T07:28:36;20.08;;;16.42;;
56116;SDS011;41989;45.356;20.392;2023-04-30T07:31:02;27.50;;;16.52;;
56116;SDS011;41989;45.356;20.392;2023-04-30T07:33:28;19.90;;;14.77;;
56116;SDS011;41989;45.356;20.392;2023-04-30T07:35:54;21.63;;;16.40;;
56116;SDS011;41989;45.356;20.392;2023-04-30T07:38:22;20.80;;;15.65;;
56116;SDS011;41989;45.356;20.392;2023-04-30T07:40:48;19.42;;;14.00;;
56116;SDS011;41989;45.356;20.392;2023-04-30T07:43:14;17.70;;;13.07;;
56116;SDS011;41989;45.356;20.392;2023-04-30T07:45:41;15.63;;;12.70;;
56116;SDS011;41989;45.356;20.392;2023-04-30T07:48:08;17.92;;;13.07;;
56116;SDS011;41989;45.356;20.392;2023-04-30T07:50:34;16.25;;;13.27;;
56116;SDS011;41989;45.356;20.392;2023-04-30T07:53:01;20.42;;;13.27;;
56116;SDS011;41989;45.356;20.392;2023-04-30T07:55:27;21.20;;;14.88;;
56116;SDS011;41989;45.356;20.392;2023-04-30T07:57:53;17.42;;;14.23;;
56116;SDS011;41989;45.356;20.392;2023-04-30T08:00:19;20.10;;;14.52;;
56116;SDS011;41989;45.356;20.392;2023-04-30T08:02:45;19.15;;;12.50;;
56116;SDS011;41989;45.356;20.392;2023-04-30T08:05:12;19.23;;;12.07;;
56116;SDS011;41989;45.356;20.392;2023-04-30T08:07:38;16.65;;;11.80;;
56116;SDS011;41989;45.356;20.392;2023-04-30T08:10:05;15.40;;;11.98;;
56116;SDS011;41989;45.356;20.392;2023-04-30T08:12:34;17.65;;;12.55;;
56116;SDS011;41989;45.356;20.392;2023-04-30T08:15:03;16.67;;;14.20;;
56116;SDS011;41989;45.356;20.392;2023-04-30T08:17:30;19.08;;;13.82;;
56116;SDS011;41989;45.356;20.392;2023-04-30T08:19:56;18.48;;;14.32;;
56116;SDS011;41989;45.356;20.392;2023-04-30T08:22:23;17.95;;;14.35;;
56116;SDS011;41989;45.356;20.392;2023-04-30T08:24:49;18.08;;;14.45;;
56116;SDS011;41989;45.356;20.392;2023-04-30T08:27:15;23.15;;;16.00;;
56116;SDS011;41989;45.356;20.392;2023-04-30T08:29:41;23.15;;;14.68;;
56116;SDS011;41989;45.356;20.392;2023-04-30T08:32:07;20.60;;;14.15;;
56116;SDS011;41989;45.356;20.392;2023-04-30T08:34:33;19.48;;;15.35;;
56116;SDS011;41989;45.356;20.392;2023-04-30T08:37:00;18.17;;;14.63;;
56116;SDS011;41989;45.356;20.392;2023-04-30T08:39:26;19.70;;;14.88;;
56116;SDS011;41989;45.356;20.392;2023-04-30T08:41:55;23.80;;;15.82;;
56116;SDS011;41989;45.356;20.392;2023-04-30T08:44:23;20.70;;;13.88;;
56116;SDS011;41989;45.356;20.392;2023-04-30T08:46:54;17.42;;;14.80;;
56116;SDS011;41989;45.356;20.392;2023-04-30T08:49:22;19.92;;;15.00;;
56116;SDS011;41989;45.356;20.392;2023-04-30T08:51:49;22.25;;;16.27;;
56116;SDS011;41989;45.356;20.392;2023-04-30T08:54:15;22.00;;;15.13;;
56116;SDS011;41989;45.356;20.392;2023-04-30T08:56:43;21.42;;;14.63;;
56116;SDS011;41989;45.356;20.392;2023-04-30T08:59:10;19.65;;;14.18;;
56116;SDS011;41989;45.356;20.392;2023-04-30T09:01:37;18.08;;;14.38;;
56116;SDS011;41989;45.356;20.392;2023-04-30T09:04:03;17.27;;;14.05;;
56116;SDS011;41989;45.356;20.392;2023-04-30T09:06:29;18.52;;;13.82;;
56116;SDS011;41989;45.356;20.392;2023-04-30T09:08:55;17.75;;;12.90;;
56116;SDS011;41989;45.356;20.392;2023-04-30T09:11:29;15.07;;;12.77;;
56116;SDS011;41989;45.356;20.392;2023-04-30T09:13:59;20.92;;;13.60;;
56116;SDS011;41989;45.356;20.392;2023-04-30T09:16:26;18.10;;;13.70;;
56116;SDS011;41989;45.356;20.392;2023-04-30T09:18:53;19.95;;;14.15;;
56116;SDS011;41989;45.356;20.392;2023-04-30T09:21:32;18.15;;;13.68;;
56116;SDS011;41989;45.356;20.392;2023-04-30T09:23:59;19.35;;;15.93;;
56116;SDS011;41989;45.356;20.392;2023-04-30T09:26:47;20.02;;;13.93;;
56116;SDS011;41989;45.356;20.392;2023-04-30T09:29:12;19.88;;;13.48;;
56116;SDS011;41989;45.356;20.392;2023-04-30T09:31:39;17.27;;;13.63;;
56116;SDS011;41989;45.356;20.392;2023-04-30T09:34:05;19.70;;;13.60;;
56116;SDS011;41989;45.356;20.392;2023-04-30T09:36:31;18.00;;;13.18;;
56116;SDS011;41989;45.356;20.392;2023-04-30T09:39:10;15.38;;;12.07;;
56116;SDS011;41989;45.356;20.392;2023-04-30T09:41:41;20.67;;;13.50;;
56116;SDS011;41989;45.356;20.392;2023-04-30T09:44:08;19.80;;;11.95;;
56116;SDS011;41989;45.356;20.392;2023-04-30T09:46:50;13.07;;;9.50;;
56116;SDS011;41989;45.356;20.392;2023-04-30T09:49:17;12.55;;;10.55;;
56116;SDS011;41989;45.356;20.392;2023-04-30T09:54:21;12.07;;;9.32;;
56116;SDS011;41989;45.356;20.392;2023-04-30T09:56:48;12.30;;;9.00;;
56116;SDS011;41989;45.356;20.392;2023-04-30T09:59:15;11.45;;;8.32;;
56116;SDS011;41989;45.356;20.392;2023-04-30T10:01:43;12.25;;;9.02;;
56116;SDS011;41989;45.356;20.392;2023-04-30T10:04:10;11.00;;;8.60;;
56116;SDS011;41989;45.356;20.392;2023-04-30T10:06:36;10.63;;;8.05;;
56116;SDS011;41989;45.356;20.392;2023-04-30T10:09:02;11.75;;;8.55;;
56116;SDS011;41989;45.356;20.392;2023-04-30T10:11:31;11.98;;;9.70;;
56116;SDS011;41989;45.356;20.392;2023-04-30T10:14:08;13.68;;;10.68;;
56116;SDS011;41989;45.356;20.392;2023-04-30T10:16:46;13.23;;;10.00;;
56116;SDS011;41989;45.356;20.392;2023-04-30T10:19:20;13.40;;;10.80;;
56116;SDS011;41989;45.356;20.392;2023-04-30T10:21:47;11.73;;;9.35;;
56116;SDS011;41989;45.356;20.392;2023-04-30T10:24:14;12.85;;;9.20;;
56116;SDS011;41989;45.356;20.392;2023-04-30T10:26:43;13.10;;;9.35;;
56116;SDS011;41989;45.356;20.392;2023-04-30T10:29:09;11.60;;;8.10;;
56116;SDS011;41989;45.356;20.392;2023-04-30T10:31:36;10.85;;;7.32;;
56116;SDS011;41989;45.356;20.392;2023-04-30T10:38:56;8.93;;;6.15;;
56116;SDS011;41989;45.356;20.392;2023-04-30T10:41:24;9.68;;;6.53;;
56116;SDS011;41989;45.356;20.392;2023-04-30T10:43:55;14.10;;;6.65;;
56116;SDS011;41989;45.356;20.392;2023-04-30T10:46:22;11.55;;;6.07;;
56116;SDS011;41989;45.356;20.392;2023-04-30T10:48:49;10.32;;;6.20;;
56116;SDS011;41989;45.356;20.392;2023-04-30T10:51:15;10.35;;;5.43;;
56116;SDS011;41989;45.356;20.392;2023-04-30T10:53:41;10.35;;;6.13;;
56116;SDS011;41989;45.356;20.392;2023-04-30T10:56:08;8.38;;;5.35;;
56116;SDS011;41989;45.356;20.392;2023-04-30T10:58:35;9.13;;;5.75;;
56116;SDS011;41989;45.356;20.392;2023-04-30T11:01:11;10.75;;;6.38;;
56116;SDS011;41989;45.356;20.392;2023-04-30T11:03:39;10.75;;;6.00;;
56116;SDS011;41989;45.356;20.392;2023-04-30T11:06:07;8.20;;;6.10;;
56116;SDS011;41989;45.356;20.392;2023-04-30T11:08:35;8.20;;;4.60;;
56116;SDS011;41989;45.356;20.392;2023-04-30T11:11:02;7.73;;;5.47;;
56116;SDS011;41989;45.356;20.392;2023-04-30T11:13:38;7.45;;;5.28;;
56116;SDS011;41989;45.356;20.392;2023-04-30T11:16:06;10.10;;;6.07;;
56116;SDS011;41989;45.356;20.392;2023-04-30T11:18:32;9.07;;;4.70;;
56116;SDS011;41989;45.356;20.392;2023-04-30T11:20:58;6.55;;;5.18;;
56116;SDS011;41989;45.356;20.392;2023-04-30T11:23:24;10.20;;;4.90;;
56116;SDS011;41989;45.356;20.392;2023-04-30T11:25:52;8.50;;;5.50;;
56116;SDS011;41989;45.356;20.392;2023-04-30T11:28:26;7.68;;;5.35;;
56116;SDS011;41989;45.356;20.392;2023-04-30T11:30:52;10.07;;;5.82;;
56116;SDS011;41989;45.356;20.392;2023-04-30T11:33:19;9.80;;;4.18;;
56116;SDS011;41989;45.356;20.392;2023-04-30T11:35:46;8.30;;;5.38;;
56116;SDS011;41989;45.356;20.392;2023-04-30T11:38:16;8.43;;;4.97;;
56116;SDS011;41989;45.356;20.392;2023-04-30T11:40:42;9.10;;;6.00;;
56116;SDS011;41989;45.356;20.392;2023-04-30T11:48:29;8.55;;;5.53;;
56116;SDS011;41989;45.356;20.392;2023-04-30T11:50:56;8.07;;;4.78;;
56116;SDS011;41989;45.356;20.392;2023-04-30T11:53:28;8.02;;;4.70;;
56116;SDS011;41989;45.356;20.392;2023-04-30T11:55:55;8.23;;;5.10;;
56116;SDS011;41989;45.356;20.392;2023-04-30T11:58:21;8.13;;;4.60;;
56116;SDS011;41989;45.356;20.392;2023-04-30T12:00:47;11.35;;;5.00;;
56116;SDS011;41989;45.356;20.392;2023-04-30T12:03:14;7.13;;;4.40;;
56116;SDS011;41989;45.356;20.392;2023-04-30T12:05:41;5.43;;;3.90;;
56116;SDS011;41989;45.356;20.392;2023-04-30T12:08:07;7.78;;;3.92;;
56116;SDS011;41989;45.356;20.392;2023-04-30T12:10:34;12.68;;;4.00;;
56116;SDS011;41989;45.356;20.392;2023-04-30T12:13:01;6.50;;;3.63;;
56116;SDS011;41989;45.356;20.392;2023-04-30T12:15:27;17.55;;;4.28;;
56116;SDS011;41989;45.356;20.392;2023-04-30T12:17:54;6.05;;;3.20;;
56116;SDS011;41989;45.356;20.392;2023-04-30T12:20:21;6.20;;;3.47;;
56116;SDS011;41989;45.356;20.392;2023-04-30T12:22:48;8.23;;;3.38;;
56116;SDS011;41989;45.356;20.392;2023-04-30T12:25:15;6.43;;;3.55;;
56116;SDS011;41989;45.356;20.392;2023-04-30T12:27:46;7.18;;;3.50;;
56116;SDS011;41989;45.356;20.392;2023-04-30T12:30:13;10.77;;;3.40;;
56116;SDS011;41989;45.356;20.392;2023-04-30T12:32:44;5.55;;;2.90;;
56116;SDS011;41989;45.356;20.392;2023-04-30T12:35:15;4.65;;;2.88;;
56116;SDS011;41989;45.356;20.392;2023-04-30T12:37:45;8.05;;;3.15;;
56116;SDS011;41989;45.356;20.392;2023-04-30T12:40:16;7.53;;;3.15;;
56116;SDS011;41989;45.356;20.392;2023-04-30T12:42:45;5.85;;;3.13;;
56116;SDS011;41989;45.356;20.392;2023-04-30T12:45:12;5.30;;;2.97;;
56116;SDS011;41989;45.356;20.392;2023-04-30T12:47:39;7.53;;;3.50;;
56116;SDS011;41989;45.356;20.392;2023-04-30T12:50:09;4.97;;;2.83;;
56116;SDS011;41989;45.356;20.392;2023-04-30T12:52:39;7.90;;;3.42;;
56116;SDS011;41989;45.356;20.392;2023-04-30T12:55:18;9.07;;;3.08;;
56116;SDS011;41989;45.356;20.392;2023-04-30T12:58:03;6.45;;;3.05;;
56116;SDS011;41989;45.356;20.392;2023-04-30T13:00:51;6.70;;;3.38;;
56116;SDS011;41989;45.356;20.392;2023-04-30T13:03:17;4.65;;;2.95;;
56116;SDS011;41989;45.356;20.392;2023-04-30T13:05:45;5.15;;;2.20;;
56116;SDS011;41989;45.356;20.392;2023-04-30T13:08:12;3.47;;;2.22;;
56116;SDS011;41989;45.356;20.392;2023-04-30T13:10:39;6.05;;;2.90;;
56116;SDS011;41989;45.356;20.392;2023-04-30T13:13:05;5.38;;;2.30;;
56116;SDS011;41989;45.356;20.392;2023-04-30T13:15:31;6.75;;;2.58;;
56116;SDS011;41989;45.356;20.392;2023-04-30T13:17:57;3.47;;;1.77;;
56116;SDS011;41989;45.356;20.392;2023-04-30T13:20:23;7.18;;;2.10;;
56116;SDS011;41989;45.356;20.392;2023-04-30T13:22:50;6.47;;;1.70;;
56116;SDS011;41989;45.356;20.392;2023-04-30T13:25:16;3.60;;;2.30;;
56116;SDS011;41989;45.356;20.392;2023-04-30T13:27:46;6.35;;;1.80;;
56116;SDS011;41989;45.356;20.392;2023-04-30T13:30:14;7.32;;;1.90;;
56116;SDS011;41989;45.356;20.392;2023-04-30T13:32:40;6.07;;;1.95;;
56116;SDS011;41989;45.356;20.392;2023-04-30T13:35:07;3.88;;;1.85;;
56116;SDS011;41989;45.356;20.392;2023-04-30T13:37:33;5.85;;;1.77;;
56116;SDS011;41989;45.356;20.392;2023-04-30T13:40:00;6.03;;;1.73;;
56116;SDS011;41989;45.356;20.392;2023-04-30T13:42:27;5.80;;;1.92;;
56116;SDS011;41989;45.356;20.392;2023-04-30T13:44:56;3.47;;;2.17;;
56116;SDS011;41989;45.356;20.392;2023-04-30T13:47:22;3.50;;;2.20;;
56116;SDS011;41989;45.356;20.392;2023-04-30T13:49:48;6.30;;;2.00;;
56116;SDS011;41989;45.356;20.392;2023-04-30T13:52:15;5.18;;;2.20;;
56116;SDS011;41989;45.356;20.392;2023-04-30T13:54:41;6.60;;;2.40;;
56116;SDS011;41989;45.356;20.392;2023-04-30T13:57:07;6.03;;;1.95;;
56116;SDS011;41989;45.356;20.392;2023-04-30T13:59:34;5.53;;;2.70;;
56116;SDS011;41989;45.356;20.392;2023-04-30T14:02:00;15.10;;;2.58;;
56116;SDS011;41989;45.356;20.392;2023-04-30T14:04:26;7.85;;;1.80;;
56116;SDS011;41989;45.356;20.392;2023-04-30T14:06:55;9.95;;;2.15;;
56116;SDS011;41989;45.356;20.392;2023-04-30T14:09:21;5.85;;;1.63;;
56116;SDS011;41989;45.356;20.392;2023-04-30T14:11:48;4.10;;;1.48;;
56116;SDS011;41989;45.356;20.392;2023-04-30T14:14:15;11.60;;;0.90;;
56116;SDS011;41989;45.356;20.392;2023-04-30T14:16:42;7.10;;;1.20;;
56116;SDS011;41989;45.356;20.392;2023-04-30T14:19:08;3.67;;;1.83;;
56116;SDS011;41989;45.356;20.392;2023-04-30T14:21:38;6.53;;;3.83;;
56116;SDS011;41989;45.356;20.392;2023-04-30T14:24:04;6.67;;;3.13;;
56116;SDS011;41989;45.356;20.392;2023-04-30T14:26:30;6.90;;;2.33;;
56116;SDS011;41989;45.356;20.392;2023-04-30T14:28:56;2.00;;;1.25;;
56116;SDS011;41989;45.356;20.392;2023-04-30T14:31:22;2.05;;;1.20;;
56116;SDS011;41989;45.356;20.392;2023-04-30T14:33:49;4.40;;;1.52;;
56116;SDS011;41989;45.356;20.392;2023-04-30T14:36:18;5.07;;;1.67;;
56116;SDS011;41989;45.356;20.392;2023-04-30T14:38:44;6.65;;;1.40;;
56116;SDS011;41989;45.356;20.392;2023-04-30T14:41:11;2.05;;;1.35;;
56116;SDS011;41989;45.356;20.392;2023-04-30T14:43:40;5.45;;;1.70;;
56116;SDS011;41989;45.356;20.392;2023-04-30T14:46:06;2.53;;;1.13;;
56116;SDS011;41989;45.356;20.392;2023-04-30T14:48:32;2.97;;;1.02;;